Startpagina
METAR-TAF:

METAR-TAF

Vliegvelden :

Internationale luchthaven Hongkong

Hongkong, China

breedte: 22-19N, lengte: 113-55E, hoogte: 9 m

Actueel weer

Dit bericht is 26 minuten geleden gemaakt, om 23:30 UTC
Wind 10 kt uit het westzuidwesten
Temperatuur 28°C
Vochtigheid 84%
Druk 1002 hPa
Zicht 10 km of meer
Weinig wolken op 1300 ft

METAR: VHHH 172330Z 24010KT 9999 FEW013 28/25 Q1002 NOSIG

Tijdstip: 07:56 (23:56 UTC)

Verwachting

Dit bericht is 56 minuten geleden gemaakt, om 23:00 UTC
Verwachting geldig van 18 om 00 UTC tot 19 om 06 UTC
Wind 10 kt uit het westzuidwesten
Zicht 10 km of meer
Weinig wolken op 2500 ft
Tijdelijke
van 18 om 21 UTC tot 19 om 03 UTC
Zicht: 4000 m
regenbuien

TAF: VHHH 172300Z 1800/1906 24010KT 9999 FEW025 TX32/1806Z TX33/1906Z TN27/1822Z TEMPO 1821/1903 4000 SHRA

Waarnemingen en weersverwachtingen van meer dan 4000 vliegvelden (METAR en TAF).

De beschikbare stations zijn de gele en rode punten op de kaart.

Ga met uw muis naar het station om de naam te zien.

Klik dan om waarnemingen en weersverwachtingen te zien.

kaart wijzigen: klik op de groene knoppen met een zwart kruis om in te zoomen, op de groene knop met een streepje om uit te zoomen of op de groene pijlen voor aangrenzende kaarten.


METAR-TAF: